Main page
METAR-TAF:

METAR-TAF

Airports :

Billund Airport

Billund, Denmark

latitude: 55-44N, longitude: 009-10E, elevation: 75 m

Current weather observation

The report was made 12 minutes ago, at 16:50 UTC
Wind 2 kt from the South
Temperature 20°C
Humidity 78%
Pressure 1013 hPa
Visibility 10 km or more

METAR: EKBI 231650Z AUTO 19002KT 9999 FEW097/// 20/16 Q1013

Time: 19:02 (17:02 UTC)

Forecast

The report was made 5 hours and 39 minutes ago, at 11:23 UTC
Forecast valid from 23 at 12 UTC to 24 at 12 UTC
Wind 8 kt from the West
Visibility 10 km or more
Scattered clouds at a height of 4000 ft
Temporary
from 23 at 12 UTC to 23 at 21 UTC
Visibility: 4000 m
Broken clouds at a height of 800 ft
Scattered clouds at a height of 2000 ft, Cumulonimbus.
rain showers
Probability 40% :
Temporary
from 23 at 12 UTC to 23 at 18 UTC
thunderstorm, rain,

TAF: EKBI 231123Z 2312/2412 26008KT 9999 SCT040 TEMPO 2312/2321 4000 SHRA BKN008 SCT020CB PROB40 TEMPO 2312/2318 TSRA

Weather observations and forecasts of more than 4000 airports (METAR and TAF reports).

The available stations are represented by yellow and red dots on the map.

Hover mouse over dot to see the name of the station.

Then click to see weather observations and forecasts.

To change the map : click on the green buttons with a black cross to zoom in, on the green button with a dash to zoom out, or on the green arrows for adjacent maps.


METAR-TAF: